createdAt,value
2023-01-09T00:00:49.780Z,99269.11
2023-01-09T00:03:26.747Z,99267.23
2023-01-09T00:05:56.436Z,99262.40
2023-01-09T00:08:26.359Z,99257.82
2023-01-09T00:10:56.267Z,99264.93
2023-01-09T00:13:25.931Z,99274.43
2023-01-09T00:15:56.254Z,99276.05
2023-01-09T00:18:26.330Z,99276.83
2023-01-09T00:21:02.274Z,99276.04
2023-01-09T00:23:32.340Z,99277.12
2023-01-09T00:26:06.182Z,99284.70
2023-01-09T00:28:36.731Z,99289.17
2023-01-09T00:31:09.401Z,99287.44
2023-01-09T00:34:05.978Z,99287.59
2023-01-09T00:36:38.099Z,99289.66
2023-01-09T00:39:08.227Z,99287.23
2023-01-09T00:41:53.138Z,99281.05
2023-01-09T00:44:39.546Z,99275.95
2023-01-09T00:47:22.039Z,99269.45
2023-01-09T00:49:53.769Z,99257.97
2023-01-09T00:52:23.480Z,99254.23
2023-01-09T00:54:53.143Z,99261.67
2023-01-09T00:57:22.571Z,99266.86
2023-01-09T00:59:52.887Z,99270.20
2023-01-09T01:02:22.309Z,99268.42
2023-01-09T01:05:09.930Z,99267.85
2023-01-09T01:07:39.286Z,99264.38
2023-01-09T01:10:30.488Z,99262.36
2023-01-09T01:13:00.064Z,99262.45
2023-01-09T01:15:29.781Z,99262.68
2023-01-09T01:17:59.186Z,99265.45
2023-01-09T01:20:28.789Z,99267.51
2023-01-09T01:22:58.303Z,99264.42
2023-01-09T01:25:28.729Z,99259.31
2023-01-09T01:27:58.223Z,99252.42
2023-01-09T01:30:28.206Z,99249.36
2023-01-09T01:32:57.651Z,99251.96
2023-01-09T01:35:27.168Z,99253.65
2023-01-09T01:37:57.719Z,99247.79
2023-01-09T01:40:28.681Z,99235.91
2023-01-09T01:42:59.065Z,99215.98
2023-01-09T01:45:30.694Z,99195.90
2023-01-09T01:48:09.530Z,99192.85
2023-01-09T01:51:06.637Z,99200.12
2023-01-09T01:53:53.949Z,99197.64
2023-01-09T01:56:32.751Z,99205.66
2023-01-09T01:59:24.914Z,99202.48
2023-01-09T02:01:59.974Z,99196.23
2023-01-09T02:04:33.308Z,99193.13
2023-01-09T02:07:09.262Z,99193.46
2023-01-09T02:09:42.320Z,99197.61
2023-01-09T02:12:26.002Z,99193.39
2023-01-09T02:15:19.695Z,99196.39
2023-01-09T02:17:54.692Z,99198.16
2023-01-09T02:20:46.804Z,99200.28
2023-01-09T02:23:46.998Z,99201.48
2023-01-09T02:26:35.238Z,99199.83
2023-01-09T02:29:16.395Z,99201.92
2023-01-09T02:32:22.635Z,99202.52
2023-01-09T02:35:18.073Z,99195.79
2023-01-09T02:38:24.592Z,99197.22
2023-01-09T02:41:20.720Z,99206.30
2023-01-09T02:44:13.858Z,99201.13
2023-01-09T02:46:43.270Z,99199.34
2023-01-09T02:49:17.199Z,99200.35
2023-01-09T02:52:24.947Z,99197.27
2023-01-09T02:55:12.393Z,99191.88
2023-01-09T02:58:19.515Z,99183.28
2023-01-09T03:00:55.733Z,99173.10
2023-01-09T03:03:38.506Z,99161.86
2023-01-09T03:06:21.423Z,99160.92
2023-01-09T03:09:01.552Z,99163.09
2023-01-09T03:11:38.726Z,99163.23
2023-01-09T03:14:16.442Z,99163.08
2023-01-09T03:16:50.005Z,99158.66
2023-01-09T03:19:24.274Z,99152.10
2023-01-09T03:21:56.205Z,99145.05
2023-01-09T03:24:25.424Z,99134.45
2023-01-09T03:26:55.613Z,99126.77
2023-01-09T03:29:24.792Z,99121.45
2023-01-09T03:31:54.937Z,99116.23
2023-01-09T03:34:24.417Z,99109.61
2023-01-09T03:36:53.790Z,99108.09
2023-01-09T03:39:23.044Z,99105.88
2023-01-09T03:41:52.519Z,99101.25
2023-01-09T03:44:22.103Z,99101.19
2023-01-09T03:46:51.745Z,99102.17
2023-01-09T03:49:21.958Z,99105.20
2023-01-09T03:51:51.462Z,99099.47
2023-01-09T03:54:20.970Z,99099.06
2023-01-09T03:56:50.827Z,99100.38
2023-01-09T03:59:20.384Z,99099.45
2023-01-09T04:01:50.824Z,99088.97
2023-01-09T04:04:20.567Z,99080.04
2023-01-09T04:06:52.401Z,99075.39
2023-01-09T04:09:21.938Z,99068.11
2023-01-09T04:11:54.601Z,99063.58
2023-01-09T04:14:27.416Z,99062.52
2023-01-09T04:16:57.234Z,99065.09
2023-01-09T04:19:27.223Z,99070.25
2023-01-09T04:21:57.039Z,99068.33
2023-01-09T04:24:26.747Z,99062.20
2023-01-09T04:26:58.681Z,99054.63
2023-01-09T04:29:28.481Z,99047.97
2023-01-09T04:31:58.221Z,99041.69
2023-01-09T04:34:27.879Z,99037.54
2023-01-09T04:36:57.735Z,99029.25
2023-01-09T04:39:27.605Z,99025.30
2023-01-09T04:41:57.237Z,99025.96
2023-01-09T04:44:26.730Z,99025.35
2023-01-09T04:46:59.213Z,99023.04
2023-01-09T04:49:28.571Z,99015.56
2023-01-09T04:51:57.894Z,99012.39
2023-01-09T04:54:27.887Z,99016.30
2023-01-09T04:56:57.189Z,99016.96
2023-01-09T04:59:26.369Z,99019.69
2023-01-09T05:01:56.392Z,99021.74
2023-01-09T05:04:26.398Z,99024.56
2023-01-09T05:06:55.634Z,99026.93
2023-01-09T05:09:24.942Z,99032.38
2023-01-09T05:11:54.271Z,99034.33
2023-01-09T05:14:23.444Z,99035.02
2023-01-09T05:16:52.638Z,99037.09
2023-01-09T05:19:21.791Z,99041.70
2023-01-09T05:21:51.351Z,99044.41
2023-01-09T05:24:20.656Z,99040.77
2023-01-09T05:26:49.939Z,99040.86
2023-01-09T05:29:19.120Z,99040.61
2023-01-09T05:31:48.341Z,99034.35
2023-01-09T05:34:17.513Z,99031.39
2023-01-09T05:36:46.694Z,99029.38
2023-01-09T05:39:16.047Z,99027.52
2023-01-09T05:41:45.218Z,99027.54
2023-01-09T05:44:14.651Z,99026.17
2023-01-09T05:46:43.818Z,99025.61
2023-01-09T05:49:12.992Z,99023.46
2023-01-09T05:51:42.292Z,99027.12
2023-01-09T05:54:11.385Z,99024.77
2023-01-09T05:56:40.628Z,99018.44
2023-01-09T05:59:10.108Z,99012.08
2023-01-09T06:01:39.342Z,99013.75
2023-01-09T06:04:08.419Z,99020.42
2023-01-09T06:06:37.631Z,99020.61
2023-01-09T06:09:07.820Z,99021.14
2023-01-09T06:11:38.546Z,99015.98
2023-01-09T06:14:08.052Z,99015.48
2023-01-09T06:16:37.371Z,99006.33
2023-01-09T06:19:06.874Z,99002.79
2023-01-09T06:21:36.094Z,99004.92
2023-01-09T06:24:06.012Z,98996.23
2023-01-09T06:26:35.222Z,98992.40
2023-01-09T06:29:04.345Z,98993.55
2023-01-09T06:31:33.436Z,98990.38
2023-01-09T06:34:02.690Z,98979.64
2023-01-09T06:36:31.834Z,98977.88
2023-01-09T06:39:01.297Z,98974.70
2023-01-09T06:41:30.534Z,98966.83
2023-01-09T06:43:59.646Z,98962.90
2023-01-09T06:46:28.802Z,98963.80
2023-01-09T06:48:57.967Z,98960.44
2023-01-09T06:51:27.098Z,98956.59
2023-01-09T06:53:56.261Z,98955.44
2023-01-09T06:56:25.311Z,98950.33
2023-01-09T06:58:54.526Z,98952.75
2023-01-09T07:01:23.876Z,98949.09
2023-01-09T07:03:53.147Z,98944.02
2023-01-09T07:06:22.402Z,98942.52
2023-01-09T07:08:51.440Z,98940.04
2023-01-09T07:11:20.614Z,98939.15
2023-01-09T07:13:50.532Z,98938.10
2023-01-09T07:16:19.775Z,98941.14
2023-01-09T07:18:49.137Z,98942.25
2023-01-09T07:21:18.360Z,98942.86
2023-01-09T07:23:47.468Z,98940.63
2023-01-09T07:26:16.721Z,98942.31
2023-01-09T07:28:46.217Z,98947.14
2023-01-09T07:31:15.249Z,98948.27
2023-01-09T07:33:44.270Z,98948.54
2023-01-09T07:36:13.521Z,98946.82
2023-01-09T07:38:43.241Z,98945.14
2023-01-09T07:41:12.445Z,98941.57
2023-01-09T07:43:41.654Z,98945.02
2023-01-09T07:46:10.751Z,98942.13
2023-01-09T07:48:39.829Z,98937.64
2023-01-09T07:51:10.615Z,98938.59
2023-01-09T07:53:44.233Z,98939.23
2023-01-09T07:56:13.354Z,98941.91
2023-01-09T07:58:42.447Z,98942.31
2023-01-09T08:01:11.754Z,98944.80
2023-01-09T08:03:41.168Z,98939.95
2023-01-09T08:06:10.452Z,98936.22
2023-01-09T08:08:39.606Z,98932.62
2023-01-09T08:11:08.847Z,98928.73
2023-01-09T08:13:37.893Z,98927.21
2023-01-09T08:16:08.138Z,98923.98
2023-01-09T08:18:37.464Z,98923.13
2023-01-09T08:21:06.976Z,98920.52
2023-01-09T08:23:36.156Z,98918.84
2023-01-09T08:26:06.042Z,98914.27
2023-01-09T08:28:35.117Z,98907.42
2023-01-09T08:31:04.237Z,98906.77
2023-01-09T08:33:33.461Z,98908.77
2023-01-09T08:36:02.689Z,98907.48
2023-01-09T08:38:32.316Z,98903.14
2023-01-09T08:41:21.414Z,98905.02
2023-01-09T08:44:08.911Z,98900.63
2023-01-09T08:46:56.513Z,98891.17
2023-01-09T08:49:25.667Z,98888.49
2023-01-09T08:51:54.853Z,98890.68
2023-01-09T08:54:24.038Z,98884.50
2023-01-09T08:56:53.374Z,98886.30
2023-01-09T08:59:22.798Z,98888.92
2023-01-09T09:01:52.095Z,98882.50
2023-01-09T09:04:21.435Z,98882.09
2023-01-09T09:06:50.569Z,98882.48
2023-01-09T09:09:19.627Z,98882.07
2023-01-09T09:11:48.733Z,98882.77
2023-01-09T09:14:36.611Z,98878.80
2023-01-09T09:17:05.685Z,98879.75
2023-01-09T09:19:34.871Z,98881.52
2023-01-09T09:22:04.065Z,98875.20
2023-01-09T09:24:33.169Z,98874.92
2023-01-09T09:27:02.303Z,98872.85
2023-01-09T09:29:31.352Z,98870.77
2023-01-09T09:32:01.234Z,98870.84
2023-01-09T09:34:30.506Z,98871.19
2023-01-09T09:37:00.375Z,98868.98
2023-01-09T09:39:29.616Z,98867.20
2023-01-09T09:42:42.358Z,98868.15
2023-01-09T09:46:01.213Z,98863.48
2023-01-09T09:48:43.361Z,98858.87
2023-01-09T09:51:52.154Z,98858.54
2023-01-09T09:54:47.385Z,98857.46
2023-01-09T09:57:24.017Z,98859.26
2023-01-09T09:59:54.227Z,98855.88
2023-01-09T10:02:33.032Z,98860.05
2023-01-09T10:05:29.216Z,98853.63
2023-01-09T10:08:39.303Z,98849.02
2023-01-09T10:11:28.804Z,98850.03
2023-01-09T10:14:16.053Z,98843.11
2023-01-09T10:17:04.805Z,98837.77
2023-01-09T10:19:49.354Z,98837.91
2023-01-09T10:22:53.275Z,98831.22
2023-01-09T10:25:45.306Z,98826.19
2023-01-09T10:28:26.061Z,98824.08
2023-01-09T10:31:30.393Z,98820.24
2023-01-09T10:34:55.512Z,98822.63
2023-01-09T10:37:33.886Z,98819.09
2023-01-09T10:40:21.075Z,98818.11
2023-01-09T10:43:00.421Z,98821.11
2023-01-09T10:45:50.975Z,98822.91
2023-01-09T10:48:36.915Z,98817.56
2023-01-09T10:51:35.719Z,98817.00
2023-01-09T10:54:15.508Z,98818.15
2023-01-09T10:57:19.338Z,98820.29
2023-01-09T10:59:48.791Z,98823.66
2023-01-09T11:02:35.665Z,98823.07
2023-01-09T11:05:05.181Z,98826.23
2023-01-09T11:07:42.462Z,98830.50
2023-01-09T11:10:15.926Z,98830.81
2023-01-09T11:12:47.836Z,98827.20
2023-01-09T11:15:19.708Z,98825.85
2023-01-09T11:17:51.898Z,98824.02
2023-01-09T11:20:28.547Z,98824.54
2023-01-09T11:22:59.228Z,98818.23
2023-01-09T11:25:31.015Z,98812.47
2023-01-09T11:28:04.919Z,98809.69
2023-01-09T11:30:52.744Z,98811.52
2023-01-09T11:33:31.880Z,98810.27
2023-01-09T11:36:15.837Z,98810.33
2023-01-09T11:39:01.311Z,98808.02
2023-01-09T11:41:42.568Z,98808.73
2023-01-09T11:44:15.984Z,98808.08
2023-01-09T11:46:45.950Z,98801.23
2023-01-09T11:49:15.337Z,98802.45
2023-01-09T11:51:45.482Z,98800.17
2023-01-09T11:54:30.582Z,98798.71
2023-01-09T11:57:00.566Z,98801.74
2023-01-09T11:59:31.764Z,98798.48
2023-01-09T12:02:28.823Z,98800.91
2023-01-09T12:05:22.427Z,98798.75
2023-01-09T12:08:06.128Z,98799.83
2023-01-09T12:11:12.574Z,98796.73
2023-01-09T12:14:14.445Z,98798.37
2023-01-09T12:16:58.812Z,98799.20
2023-01-09T12:19:58.912Z,98792.80
2023-01-09T12:22:57.444Z,98794.66
2023-01-09T12:26:17.328Z,98792.18
2023-01-09T12:29:01.163Z,98788.33
2023-01-09T12:32:15.795Z,98785.95
2023-01-09T12:35:08.739Z,98782.21
2023-01-09T12:37:40.846Z,98780.63
2023-01-09T12:40:16.251Z,98787.48
2023-01-09T12:43:10.251Z,98789.23
2023-01-09T12:46:19.366Z,98782.92
2023-01-09T12:49:03.495Z,98784.23
2023-01-09T12:51:55.616Z,98784.12
2023-01-09T12:54:43.157Z,98786.84
2023-01-09T12:57:38.442Z,98788.40
2023-01-09T13:00:40.448Z,98794.26
2023-01-09T13:03:20.985Z,98797.23
2023-01-09T13:05:54.014Z,98795.39
2023-01-09T13:08:42.804Z,98797.79
2023-01-09T13:11:38.408Z,98799.70
2023-01-09T13:14:40.316Z,98807.39
2023-01-09T13:17:20.389Z,98810.98
2023-01-09T13:19:51.201Z,98811.35
2023-01-09T13:22:25.976Z,98813.23
2023-01-09T13:25:32.803Z,98813.80
2023-01-09T13:28:20.648Z,98812.99
2023-01-09T13:31:24.297Z,98819.73
2023-01-09T13:34:02.899Z,98822.29
2023-01-09T13:36:40.294Z,98823.85
2023-01-09T13:39:30.264Z,98824.71
2023-01-09T13:42:24.700Z,98829.06
2023-01-09T13:44:56.883Z,98833.44
2023-01-09T13:47:29.986Z,98836.08
2023-01-09T13:50:22.045Z,98838.10
2023-01-09T13:52:52.406Z,98841.61
2023-01-09T13:55:29.128Z,98843.71
2023-01-09T13:58:08.787Z,98848.84
2023-01-09T14:00:39.248Z,98846.78
2023-01-09T14:03:33.414Z,98847.55
2023-01-09T14:06:12.249Z,98854.76
2023-01-09T14:08:46.029Z,98862.10
2023-01-09T14:11:27.038Z,98867.89
2023-01-09T14:14:05.000Z,98870.55
2023-01-09T14:16:36.955Z,98879.85
2023-01-09T14:19:18.819Z,98888.80
2023-01-09T14:21:58.237Z,98893.23
2023-01-09T14:24:46.484Z,98897.45
2023-01-09T14:27:59.833Z,98897.80
2023-01-09T14:30:34.073Z,98897.10
2023-01-09T14:33:05.316Z,98900.91
2023-01-09T14:35:51.326Z,98905.65
2023-01-09T14:38:29.810Z,98907.92
2023-01-09T14:41:52.241Z,98916.57
2023-01-09T14:44:42.953Z,98921.91
2023-01-09T14:47:15.360Z,98925.39
2023-01-09T14:50:35.873Z,98931.10
2023-01-09T14:53:15.554Z,98932.15
2023-01-09T14:55:58.196Z,98934.14
2023-01-09T14:58:36.467Z,98935.83
2023-01-09T15:01:22.956Z,98943.09
2023-01-09T15:04:01.239Z,98951.70
2023-01-09T15:06:37.681Z,98954.52
2023-01-09T15:09:26.325Z,98959.69
2023-01-09T15:12:04.033Z,98967.04
2023-01-09T15:14:48.981Z,98974.54
2023-01-09T15:17:28.836Z,98984.09
2023-01-09T15:20:06.334Z,98987.29
2023-01-09T15:22:38.819Z,98991.41
2023-01-09T15:25:44.918Z,98989.73
2023-01-09T15:28:27.881Z,98992.15
2023-01-09T15:31:11.434Z,99001.12
2023-01-09T15:33:54.205Z,98999.70
2023-01-09T15:36:31.306Z,99001.30
2023-01-09T15:39:01.678Z,99008.16
2023-01-09T15:41:51.086Z,99019.17
2023-01-09T15:50:04.933Z,99038.46
2023-01-09T15:52:35.688Z,99042.92
2023-01-09T15:55:37.581Z,99043.25
2023-01-09T15:58:30.386Z,99042.44
2023-01-09T16:01:08.295Z,99047.84
2023-01-09T16:03:39.144Z,99055.85
2023-01-09T16:06:30.904Z,99054.00
2023-01-09T16:09:05.588Z,99048.08
2023-01-09T16:11:39.110Z,99044.07
2023-01-09T16:14:38.775Z,99043.06
2023-01-09T16:17:16.546Z,99041.35
2023-01-09T16:20:13.072Z,99044.82
2023-01-09T16:22:57.140Z,99050.90
2023-01-09T16:25:31.624Z,99064.23
2023-01-09T16:28:30.895Z,99070.13
2023-01-09T16:31:31.146Z,99051.30
2023-01-09T16:34:07.537Z,99028.11
2023-01-09T16:36:37.531Z,99026.14
2023-01-09T16:39:22.100Z,99037.40
2023-01-09T16:42:11.524Z,99045.48
2023-01-09T16:44:45.864Z,99053.63
2023-01-09T16:47:20.464Z,99053.30
2023-01-09T16:49:51.877Z,99051.92
2023-01-09T16:52:26.972Z,99053.66
2023-01-09T16:54:58.741Z,99055.33
2023-01-09T16:57:28.649Z,99068.63
2023-01-09T17:00:01.752Z,99076.02
2023-01-09T17:02:34.035Z,99079.91
2023-01-09T17:05:08.202Z,99078.30
2023-01-09T17:07:40.328Z,99076.52
2023-01-09T17:10:21.670Z,99076.09
2023-01-09T17:12:53.505Z,99081.92
2023-01-09T17:15:26.486Z,99086.90
2023-01-09T17:17:58.414Z,99091.74
2023-01-09T17:20:30.051Z,99096.61
2023-01-09T17:22:59.615Z,99090.06
2023-01-09T17:25:47.695Z,99089.38
2023-01-09T17:28:36.207Z,99094.57
2023-01-09T17:31:10.412Z,99101.08
2023-01-09T17:33:43.149Z,99102.41
2023-01-09T17:36:27.357Z,99108.41
2023-01-09T17:38:57.155Z,99118.58
2023-01-09T17:41:32.115Z,99128.70
2023-01-09T17:44:13.992Z,99133.16
2023-01-09T17:46:48.829Z,99140.16
2023-01-09T17:49:28.464Z,99151.65
2023-01-09T17:52:02.610Z,99152.76
2023-01-09T17:54:41.119Z,99156.41
2023-01-09T17:57:20.981Z,99163.36
2023-01-09T17:59:56.111Z,99173.04
2023-01-09T18:02:25.939Z,99184.59
2023-01-09T18:04:56.014Z,99189.39
2023-01-09T18:07:28.677Z,99196.48
2023-01-09T18:10:02.378Z,99200.73
2023-01-09T18:12:35.484Z,99204.05
2023-01-09T18:15:06.157Z,99216.41
2023-01-09T18:17:39.559Z,99221.69
2023-01-09T18:20:32.286Z,99219.03
2023-01-09T18:23:26.958Z,99220.73
2023-01-09T18:26:00.689Z,99226.45
2023-01-09T18:28:38.065Z,99227.27
2023-01-09T18:31:09.030Z,99226.30
2023-01-09T18:33:44.859Z,99223.93
2023-01-09T18:36:31.808Z,99220.73
2023-01-09T18:39:13.363Z,99224.13
2023-01-09T18:41:43.385Z,99224.90
2023-01-09T18:44:13.486Z,99220.58
2023-01-09T18:46:47.391Z,99220.70
2023-01-09T18:49:21.298Z,99221.26
2023-01-09T18:51:56.703Z,99223.65
2023-01-09T18:54:28.969Z,99224.50
2023-01-09T18:57:03.929Z,99227.80
2023-01-09T18:59:36.767Z,99234.73
2023-01-09T19:02:26.882Z,99235.55
2023-01-09T19:05:14.232Z,99238.95
2023-01-09T19:07:55.322Z,99237.78
2023-01-09T19:10:26.791Z,99235.36
2023-01-09T19:12:56.903Z,99236.19
2023-01-09T19:15:30.137Z,99234.98
2023-01-09T19:18:15.834Z,99236.85
2023-01-09T19:20:59.110Z,99240.55
2023-01-09T19:23:32.980Z,99246.41
2023-01-09T19:26:08.762Z,99248.52
2023-01-09T19:28:45.853Z,99251.62
2023-01-09T19:31:25.803Z,99253.16
2023-01-09T19:34:05.330Z,99258.05
2023-01-09T19:36:38.785Z,99259.32
2023-01-09T19:39:14.054Z,99262.84
2023-01-09T19:41:47.797Z,99267.59
2023-01-09T19:44:23.521Z,99267.39
2023-01-09T19:46:57.742Z,99274.52
2023-01-09T19:49:35.550Z,99279.83
2023-01-09T19:52:07.132Z,99282.63
2023-01-09T19:54:37.068Z,99286.41
2023-01-09T19:57:07.044Z,99292.09
2023-01-09T19:59:40.229Z,99291.48
2023-01-09T20:02:13.595Z,99291.13
2023-01-09T20:04:44.014Z,99295.13
2023-01-09T20:07:18.640Z,99297.52
2023-01-09T20:10:42.416Z,99302.52
2023-01-09T20:13:31.457Z,99312.41
2023-01-09T20:16:11.844Z,99315.52
2023-01-09T20:18:47.722Z,99313.63
2023-01-09T20:24:18.845Z,99324.27
2023-01-09T20:27:08.053Z,99329.15
2023-01-09T20:29:48.179Z,99331.19
2023-01-09T20:35:56.953Z,99338.34
2023-01-09T20:39:07.450Z,99342.69
2023-01-09T20:41:56.107Z,99349.88
2023-01-09T20:44:52.508Z,99354.48
2023-01-09T20:47:29.367Z,99356.73
2023-01-09T20:50:01.121Z,99361.91
2023-01-09T20:52:33.713Z,99365.34
2023-01-09T20:55:11.491Z,99369.85
2023-01-09T20:57:49.163Z,99367.52
2023-01-09T21:00:32.497Z,99366.55
2023-01-09T21:03:07.745Z,99367.30
2023-01-09T21:05:54.228Z,99369.05
2023-01-09T21:08:36.451Z,99370.91
2023-01-09T21:11:06.436Z,99374.38
2023-01-09T21:13:36.990Z,99376.08
2023-01-09T21:16:20.344Z,99377.61
2023-01-09T21:18:55.297Z,99374.06
2023-01-09T21:21:50.935Z,99378.29
2023-01-09T21:24:31.045Z,99387.02
2023-01-09T21:27:25.915Z,99396.97
2023-01-09T21:29:58.213Z,99398.58
2023-01-09T21:32:38.107Z,99400.33
2023-01-09T21:35:17.279Z,99405.27
2023-01-09T21:37:49.763Z,99407.71
2023-01-09T21:40:26.094Z,99412.45
2023-01-09T21:43:57.769Z,99417.01
2023-01-09T21:47:21.451Z,99420.55
2023-01-09T21:53:33.890Z,99435.32
2023-01-09T21:56:53.789Z,99439.06
2023-01-09T21:59:33.504Z,99442.23
2023-01-09T22:02:23.163Z,99446.29
2023-01-09T22:05:00.380Z,99449.93
2023-01-09T22:07:34.158Z,99454.60
2023-01-09T22:10:24.951Z,99456.86
2023-01-09T22:13:21.571Z,99455.02
2023-01-09T22:16:06.212Z,99456.36
2023-01-09T22:18:41.148Z,99459.84
2023-01-09T22:21:19.245Z,99470.57
2023-01-09T22:23:57.661Z,99477.84
2023-01-09T22:26:29.797Z,99481.66
2023-01-09T22:29:20.736Z,99484.84
2023-01-09T22:32:18.873Z,99483.75
2023-01-09T22:35:04.969Z,99482.39
2023-01-09T22:37:38.784Z,99481.48
2023-01-09T22:40:13.928Z,99480.02
2023-01-09T22:42:43.630Z,99479.08
2023-01-09T22:45:16.622Z,99482.59
2023-01-09T22:47:52.527Z,99485.83
2023-01-09T22:50:23.229Z,99493.16
2023-01-09T22:52:58.450Z,99497.87
2023-01-09T22:55:37.530Z,99504.66
2023-01-09T22:58:10.831Z,99504.56
2023-01-09T23:00:45.493Z,99502.38
2023-01-09T23:09:12.141Z,99511.29
2023-01-09T23:12:08.290Z,99513.79
2023-01-09T23:14:45.596Z,99519.16
2023-01-09T23:17:17.534Z,99518.28
2023-01-09T23:19:58.024Z,99521.74
2023-01-09T23:22:33.459Z,99523.98
2023-01-09T23:25:10.653Z,99523.41
2023-01-09T23:27:41.072Z,99527.34
2023-01-09T23:30:16.594Z,99528.52
2023-01-09T23:32:49.249Z,99532.81
2023-01-09T23:35:23.172Z,99539.16
2023-01-09T23:37:54.135Z,99538.06
2023-01-09T23:40:28.566Z,99541.13
2023-01-09T23:43:13.087Z,99542.37
2023-01-09T23:45:54.722Z,99540.84
2023-01-09T23:48:38.558Z,99546.75
2023-01-09T23:51:09.929Z,99552.19
2023-01-09T23:53:44.762Z,99550.14
2023-01-09T23:56:14.405Z,99552.02
2023-01-09T23:58:52.616Z,99552.84
